createdAt,value
2023-03-25T00:00:16.057Z,79.28
2023-03-25T00:02:01.684Z,79.43
2023-03-25T00:03:05.076Z,79.36
2023-03-25T00:04:12.514Z,79.01
2023-03-25T00:05:16.537Z,79.39
2023-03-25T00:06:34.577Z,79.89
2023-03-25T00:07:41.220Z,79.94
2023-03-25T00:08:45.139Z,79.90
2023-03-25T00:09:48.339Z,79.28
2023-03-25T00:10:54.750Z,79.87
2023-03-25T00:12:04.135Z,79.50
2023-03-25T00:13:09.428Z,79.37
2023-03-25T00:14:12.517Z,79.78
2023-03-25T00:15:16.894Z,79.97
2023-03-25T00:16:20.118Z,79.85
2023-03-25T00:17:31.357Z,79.86
2023-03-25T00:18:34.615Z,79.76
2023-03-25T00:19:41.578Z,80.03
2023-03-25T00:20:49.824Z,79.66
2023-03-25T00:21:56.684Z,79.85
2023-03-25T00:23:02.180Z,80.31
2023-03-25T00:24:06.521Z,80.22
2023-03-25T00:25:16.598Z,79.88
2023-03-25T00:26:24.878Z,79.71
2023-03-25T00:27:27.652Z,80.27
2023-03-25T00:28:35.421Z,80.51
2023-03-25T00:29:42.056Z,80.13
2023-03-25T00:30:46.838Z,80.03
2023-03-25T00:31:52.221Z,80.13
2023-03-25T00:32:58.322Z,79.92
2023-03-25T00:34:02.061Z,80.46
2023-03-25T00:35:09.009Z,80.60
2023-03-25T00:36:14.986Z,80.15
2023-03-25T00:37:43.759Z,80.92
2023-03-25T00:38:49.638Z,80.51
2023-03-25T00:40:06.796Z,80.74
2023-03-25T00:41:32.462Z,80.60
2023-03-25T00:42:50.056Z,80.91
2023-03-25T00:43:56.627Z,80.52
2023-03-25T00:44:59.369Z,80.42
2023-03-25T00:46:31.888Z,80.85
2023-03-25T00:47:39.107Z,80.67
2023-03-25T00:48:46.193Z,81.18
2023-03-25T00:49:52.882Z,81.59
2023-03-25T00:50:59.662Z,81.67
2023-03-25T00:54:00.407Z,82.08
2023-03-25T00:55:03.648Z,81.42
2023-03-25T00:56:09.871Z,81.95
2023-03-25T00:57:12.715Z,81.62
2023-03-25T00:58:18.898Z,82.01
2023-03-25T00:59:46.535Z,81.73
2023-03-25T01:00:49.841Z,82.02
2023-03-25T01:01:56.371Z,82.03
2023-03-25T01:03:05.438Z,81.99
2023-03-25T01:04:12.691Z,81.38
2023-03-25T01:05:17.550Z,81.99
2023-03-25T01:06:21.805Z,82.04
2023-03-25T01:07:24.651Z,81.75
2023-03-25T01:08:29.931Z,82.35
2023-03-25T01:09:39.928Z,82.48
2023-03-25T01:10:56.063Z,82.92
2023-03-25T01:12:00.980Z,82.14
2023-03-25T01:13:04.967Z,82.70
2023-03-25T01:14:09.475Z,82.76
2023-03-25T01:15:17.526Z,82.89
2023-03-25T01:16:29.662Z,82.54
2023-03-25T01:17:33.354Z,83.06
2023-03-25T01:18:38.847Z,83.38
2023-03-25T01:19:42.059Z,83.28
2023-03-25T01:21:04.650Z,83.54
2023-03-25T01:22:07.668Z,83.09
2023-03-25T01:23:19.646Z,83.18
2023-03-25T01:24:22.606Z,83.44
2023-03-25T01:25:28.537Z,83.21
2023-03-25T01:26:31.084Z,83.08
2023-03-25T01:27:35.605Z,82.88
2023-03-25T01:28:51.076Z,83.46
2023-03-25T01:29:57.897Z,83.40
2023-03-25T01:31:18.783Z,82.99
2023-03-25T01:32:25.074Z,82.85
2023-03-25T01:33:57.127Z,83.34
2023-03-25T01:35:00.712Z,83.14
2023-03-25T01:36:03.491Z,82.99
2023-03-25T01:37:07.850Z,83.10
2023-03-25T01:38:09.935Z,82.82
2023-03-25T01:39:16.687Z,82.98
2023-03-25T01:40:21.114Z,82.46
2023-03-25T01:41:24.352Z,82.48
2023-03-25T01:42:26.756Z,82.14
2023-03-25T01:43:30.432Z,82.37
2023-03-25T01:45:10.709Z,82.41
2023-03-25T01:46:17.383Z,81.25
2023-03-25T01:47:19.918Z,81.42
2023-03-25T01:48:25.150Z,81.11
2023-03-25T01:49:33.475Z,81.53
2023-03-25T01:51:03.779Z,80.81
2023-03-25T01:52:09.865Z,81.14
2023-03-25T01:53:13.638Z,80.41
2023-03-25T01:54:18.086Z,80.63
2023-03-25T01:55:21.287Z,80.71
2023-03-25T01:56:26.835Z,80.50
2023-03-25T01:57:33.981Z,80.69
2023-03-25T01:58:44.138Z,80.50
2023-03-25T01:59:48.202Z,80.31
2023-03-25T02:00:51.570Z,79.85
2023-03-25T02:01:57.271Z,79.84
2023-03-25T02:03:03.537Z,79.76
2023-03-25T02:04:12.271Z,79.76
2023-03-25T02:05:19.268Z,79.85
2023-03-25T02:06:28.650Z,79.78
2023-03-25T02:07:33.429Z,79.56
2023-03-25T02:08:39.825Z,79.07
2023-03-25T02:09:43.008Z,79.33
2023-03-25T02:10:47.463Z,79.31
2023-03-25T02:11:50.799Z,79.28
2023-03-25T02:13:00.592Z,78.73
2023-03-25T02:14:05.879Z,78.99
2023-03-25T02:15:10.859Z,78.48
2023-03-25T02:16:27.128Z,78.73
2023-03-25T02:17:38.864Z,78.66
2023-03-25T02:18:48.850Z,77.82
2023-03-25T02:20:26.131Z,78.15
2023-03-25T02:21:55.397Z,78.54
2023-03-25T02:24:14.245Z,77.92
2023-03-25T02:25:46.172Z,78.28
2023-03-25T02:27:13.867Z,78.32
2023-03-25T02:28:26.248Z,77.33
2023-03-25T02:30:07.613Z,78.08
2023-03-25T02:31:50.041Z,77.59
2023-03-25T02:33:38.210Z,78.28
2023-03-25T02:34:50.258Z,78.13
2023-03-25T02:36:15.586Z,78.21
2023-03-25T02:38:10.066Z,78.64
2023-03-25T02:39:29.535Z,78.82
2023-03-25T02:40:38.949Z,78.67
2023-03-25T02:41:48.198Z,78.74
2023-03-25T02:42:56.395Z,78.38
2023-03-25T02:44:03.761Z,78.40
2023-03-25T02:45:12.149Z,78.73
2023-03-25T02:46:17.565Z,78.29
2023-03-25T02:47:24.685Z,78.66
2023-03-25T02:48:34.987Z,79.23
2023-03-25T02:49:40.511Z,78.27
2023-03-25T02:50:47.173Z,78.01
2023-03-25T02:51:54.890Z,78.53
2023-03-25T02:53:00.044Z,78.58
2023-03-25T02:54:05.416Z,78.66
2023-03-25T02:55:12.833Z,78.40
2023-03-25T02:56:25.711Z,78.49
2023-03-25T02:57:33.927Z,78.15
2023-03-25T02:58:38.828Z,78.12
2023-03-25T02:59:49.116Z,78.07
2023-03-25T03:00:59.221Z,78.28
2023-03-25T03:02:03.927Z,77.93
2023-03-25T03:04:33.709Z,77.98
2023-03-25T03:05:40.929Z,78.64
2023-03-25T03:07:07.999Z,78.19
2023-03-25T03:08:28.245Z,77.82
2023-03-25T03:09:42.763Z,78.11
2023-03-25T03:10:52.457Z,77.96
2023-03-25T03:12:04.942Z,78.16
2023-03-25T03:13:16.644Z,78.10
2023-03-25T03:14:49.870Z,77.85
2023-03-25T03:16:07.886Z,77.99
2023-03-25T03:17:20.525Z,78.33
2023-03-25T03:18:38.197Z,78.14
2023-03-25T03:19:46.574Z,78.54
2023-03-25T03:20:57.352Z,78.17
2023-03-25T03:22:03.971Z,78.23
2023-03-25T03:23:26.132Z,77.83
2023-03-25T03:24:32.241Z,77.85
2023-03-25T03:25:38.524Z,78.13
2023-03-25T03:26:44.912Z,78.12
2023-03-25T03:27:50.553Z,78.35
2023-03-25T03:28:59.858Z,78.09
2023-03-25T03:30:09.057Z,78.14
2023-03-25T03:31:16.359Z,78.29
2023-03-25T03:32:43.480Z,78.84
2023-03-25T03:33:48.311Z,79.00
2023-03-25T03:34:54.014Z,78.77
2023-03-25T03:36:02.228Z,78.44
2023-03-25T03:37:07.038Z,78.31
2023-03-25T03:38:11.994Z,78.82
2023-03-25T03:39:20.004Z,78.85
2023-03-25T03:40:23.871Z,78.48
2023-03-25T03:41:28.459Z,78.78
2023-03-25T03:42:35.330Z,78.61
2023-03-25T03:43:43.075Z,78.29
2023-03-25T03:44:53.155Z,78.41
2023-03-25T03:46:24.973Z,78.46
2023-03-25T03:47:30.673Z,77.95
2023-03-25T03:48:40.477Z,78.42
2023-03-25T03:50:09.444Z,78.41
2023-03-25T03:51:18.808Z,78.49
2023-03-25T03:52:25.914Z,78.40
2023-03-25T03:53:30.317Z,78.35
2023-03-25T03:54:40.417Z,78.32
2023-03-25T03:55:48.064Z,77.96
2023-03-25T03:56:56.003Z,77.97
2023-03-25T03:58:10.059Z,78.54
2023-03-25T03:59:17.492Z,78.40
2023-03-25T04:00:24.321Z,77.84
2023-03-25T04:01:36.259Z,77.85
2023-03-25T04:02:41.465Z,77.84
2023-03-25T04:04:07.946Z,78.08
2023-03-25T04:05:16.313Z,77.76
2023-03-25T04:06:25.804Z,77.96
2023-03-25T04:07:39.055Z,78.39
2023-03-25T04:08:51.998Z,78.10
2023-03-25T04:09:57.873Z,77.94
2023-03-25T04:11:07.964Z,77.96
2023-03-25T04:12:14.469Z,78.55
2023-03-25T04:13:19.330Z,78.03
2023-03-25T04:14:21.505Z,78.23
2023-03-25T04:15:24.469Z,78.69
2023-03-25T04:16:26.563Z,78.97
2023-03-25T04:17:33.069Z,78.90
2023-03-25T04:21:15.757Z,79.09
2023-03-25T04:22:19.305Z,78.81
2023-03-25T04:23:26.233Z,78.99
2023-03-25T04:24:39.399Z,79.03
2023-03-25T04:25:48.079Z,79.23
2023-03-25T04:26:53.336Z,79.42
2023-03-25T04:28:00.104Z,79.11
2023-03-25T04:29:04.732Z,79.48
2023-03-25T04:30:13.415Z,79.43
2023-03-25T04:31:17.941Z,79.44
2023-03-25T04:32:22.449Z,79.38
2023-03-25T04:33:32.351Z,79.93
2023-03-25T04:34:58.109Z,79.61
2023-03-25T04:36:03.872Z,80.26
2023-03-25T04:37:26.386Z,79.97
2023-03-25T04:38:29.883Z,79.81
2023-03-25T04:39:33.793Z,79.76
2023-03-25T04:40:46.892Z,79.79
2023-03-25T04:42:17.962Z,80.13
2023-03-25T04:43:21.243Z,80.07
2023-03-25T04:44:27.292Z,80.17
2023-03-25T04:45:30.939Z,80.04
2023-03-25T04:46:36.557Z,80.65
2023-03-25T04:47:45.245Z,80.56
2023-03-25T04:48:56.333Z,80.79
2023-03-25T04:49:59.052Z,80.57
2023-03-25T04:51:03.531Z,80.63
2023-03-25T04:52:06.614Z,80.97
2023-03-25T04:53:16.441Z,80.72
2023-03-25T04:54:19.673Z,80.79
2023-03-25T04:55:24.040Z,80.51
2023-03-25T04:56:52.143Z,80.84
2023-03-25T04:58:21.303Z,81.05
2023-03-25T04:59:27.229Z,81.25
2023-03-25T05:00:32.085Z,81.02
2023-03-25T05:01:38.041Z,81.30
2023-03-25T05:02:57.118Z,81.11
2023-03-25T05:04:08.780Z,81.14
2023-03-25T05:05:24.641Z,81.12
2023-03-25T05:08:26.399Z,81.10
2023-03-25T05:09:30.312Z,80.89
2023-03-25T05:10:39.065Z,80.88
2023-03-25T05:11:42.438Z,80.72
2023-03-25T05:12:47.120Z,81.46
2023-03-25T05:13:49.746Z,81.11
2023-03-25T05:14:57.283Z,81.07
2023-03-25T05:16:02.495Z,81.23
2023-03-25T05:17:06.897Z,80.87
2023-03-25T05:18:10.618Z,80.96
2023-03-25T05:19:17.845Z,81.19
2023-03-25T05:20:23.035Z,80.87
2023-03-25T05:21:27.419Z,80.98
2023-03-25T05:22:39.958Z,81.02
2023-03-25T05:23:45.353Z,81.05
2023-03-25T05:24:53.860Z,80.79
2023-03-25T05:25:59.303Z,81.11
2023-03-25T05:27:02.640Z,81.07
2023-03-25T05:28:16.865Z,81.12
2023-03-25T05:29:22.849Z,81.14
2023-03-25T05:30:35.090Z,81.33
2023-03-25T05:31:42.167Z,81.13
2023-03-25T05:32:51.201Z,81.28
2023-03-25T05:34:00.475Z,81.60
2023-03-25T05:35:12.305Z,81.29
2023-03-25T05:36:18.173Z,81.55
2023-03-25T05:37:41.108Z,81.40
2023-03-25T05:38:54.787Z,81.41
2023-03-25T05:39:59.665Z,81.51
2023-03-25T05:41:03.624Z,80.99
2023-03-25T05:42:07.998Z,81.38
2023-03-25T05:43:11.230Z,81.23
2023-03-25T05:44:41.799Z,81.30
2023-03-25T05:45:47.420Z,80.77
2023-03-25T05:47:03.017Z,81.07
2023-03-25T05:48:09.198Z,80.48
2023-03-25T05:49:13.184Z,80.68
2023-03-25T05:50:17.228Z,80.69
2023-03-25T05:51:25.917Z,80.68
2023-03-25T05:52:28.945Z,80.58
2023-03-25T05:53:33.177Z,80.95
2023-03-25T05:54:42.339Z,80.89
2023-03-25T05:55:52.661Z,80.58
2023-03-25T05:56:55.673Z,80.51
2023-03-25T05:57:59.692Z,81.03
2023-03-25T05:59:03.935Z,80.89
2023-03-25T06:00:15.700Z,81.05
2023-03-25T06:01:32.541Z,81.16
2023-03-25T06:02:39.063Z,80.86
2023-03-25T06:03:45.809Z,80.51
2023-03-25T06:04:51.185Z,80.54
2023-03-25T06:05:58.657Z,80.14
2023-03-25T06:07:01.868Z,79.98
2023-03-25T06:08:06.737Z,80.61
2023-03-25T06:09:13.251Z,79.94
2023-03-25T06:10:18.441Z,80.26
2023-03-25T06:11:20.944Z,79.95
2023-03-25T06:12:28.404Z,80.09
2023-03-25T06:16:11.918Z,79.83
2023-03-25T06:17:19.141Z,79.92
2023-03-25T06:18:24.968Z,79.80
2023-03-25T06:19:28.424Z,79.55
2023-03-25T06:20:30.962Z,80.08
2023-03-25T06:21:35.687Z,79.80
2023-03-25T06:24:22.281Z,79.70
2023-03-25T06:28:37.191Z,79.90
2023-03-25T06:29:41.986Z,79.67
2023-03-25T06:31:07.344Z,79.93
2023-03-25T06:32:12.808Z,79.90
2023-03-25T06:33:42.902Z,80.18
2023-03-25T06:34:55.621Z,79.95
2023-03-25T06:35:58.686Z,80.01
2023-03-25T06:37:05.698Z,79.99
2023-03-25T06:38:14.045Z,80.47
2023-03-25T06:39:41.849Z,79.86
2023-03-25T06:41:04.231Z,80.27
2023-03-25T06:42:09.050Z,79.95
2023-03-25T06:43:28.091Z,79.76
2023-03-25T06:45:05.327Z,79.63
2023-03-25T06:46:23.341Z,78.90
2023-03-25T06:47:47.996Z,78.69
2023-03-25T06:48:57.723Z,78.88
2023-03-25T06:50:11.939Z,79.19
2023-03-25T06:51:17.840Z,79.32
2023-03-25T06:52:28.241Z,79.38
2023-03-25T06:53:32.010Z,79.06
2023-03-25T06:54:36.241Z,78.67
2023-03-25T06:55:59.472Z,78.49
2023-03-25T06:57:03.129Z,79.42
2023-03-25T06:58:06.313Z,78.40
2023-03-25T06:59:09.599Z,78.59
2023-03-25T07:00:14.246Z,78.04
2023-03-25T07:01:20.593Z,77.95
2023-03-25T07:02:23.415Z,77.27
2023-03-25T07:03:27.155Z,77.07
2023-03-25T07:04:31.008Z,77.23
2023-03-25T07:05:34.635Z,77.10
2023-03-25T07:06:38.003Z,77.34
2023-03-25T07:07:44.437Z,76.40
2023-03-25T07:08:49.189Z,76.36
2023-03-25T07:09:52.745Z,76.67
2023-03-25T07:11:05.310Z,76.58
2023-03-25T07:12:09.179Z,76.31
2023-03-25T07:13:13.380Z,76.42
2023-03-25T07:14:16.811Z,76.47
2023-03-25T07:15:29.724Z,76.26
2023-03-25T07:16:39.840Z,76.52
2023-03-25T07:17:49.398Z,76.13
2023-03-25T07:18:55.109Z,76.15
2023-03-25T07:19:59.478Z,75.52
2023-03-25T07:21:03.333Z,75.75
2023-03-25T07:22:08.440Z,74.84
2023-03-25T07:23:12.679Z,75.36
2023-03-25T07:25:09.239Z,74.88
2023-03-25T07:26:16.681Z,74.36
2023-03-25T07:27:19.599Z,75.11
2023-03-25T07:28:38.205Z,74.69
2023-03-25T07:29:40.956Z,74.55
2023-03-25T07:30:44.790Z,74.04
2023-03-25T07:31:51.408Z,73.25
2023-03-25T07:32:54.588Z,73.90
2023-03-25T07:33:59.988Z,73.68
2023-03-25T07:35:10.544Z,73.00
2023-03-25T07:36:15.099Z,72.40
2023-03-25T07:37:20.131Z,72.42
2023-03-25T07:38:24.270Z,72.19
2023-03-25T07:39:27.316Z,72.64
2023-03-25T07:40:30.795Z,72.46
2023-03-25T07:41:33.780Z,72.36
2023-03-25T07:43:00.434Z,71.83
2023-03-25T07:44:21.925Z,72.42
2023-03-25T07:45:27.448Z,72.13
2023-03-25T07:46:34.313Z,71.57
2023-03-25T07:47:38.501Z,71.46
2023-03-25T07:48:41.860Z,70.71
2023-03-25T07:49:50.136Z,70.05
2023-03-25T07:50:53.910Z,70.80
2023-03-25T07:51:57.206Z,69.60
2023-03-25T07:52:59.426Z,69.58
2023-03-25T07:54:07.936Z,69.43
2023-03-25T07:55:10.807Z,68.81
2023-03-25T07:56:14.648Z,67.90
2023-03-25T07:57:18.206Z,67.63
2023-03-25T07:58:21.147Z,67.71
2023-03-25T07:59:24.405Z,67.18
2023-03-25T08:00:53.130Z,65.95
2023-03-25T08:01:56.766Z,67.21
2023-03-25T08:03:07.030Z,65.05
2023-03-25T08:04:10.279Z,64.47
2023-03-25T08:05:13.120Z,65.36
2023-03-25T08:06:39.836Z,64.11
2023-03-25T08:07:46.859Z,63.80
2023-03-25T08:08:52.934Z,64.13
2023-03-25T08:09:55.593Z,64.48
2023-03-25T08:11:08.963Z,63.44
2023-03-25T08:12:11.188Z,63.80
2023-03-25T08:13:17.788Z,63.08
2023-03-25T08:14:21.762Z,64.05
2023-03-25T08:15:28.487Z,64.22
2023-03-25T08:16:31.439Z,64.40
2023-03-25T08:17:35.104Z,64.39
2023-03-25T08:18:40.662Z,64.33
2023-03-25T08:19:45.497Z,63.51
2023-03-25T08:20:50.807Z,62.63
2023-03-25T08:21:56.233Z,62.01
2023-03-25T08:22:59.157Z,62.34
2023-03-25T08:24:04.741Z,60.80
2023-03-25T08:25:08.420Z,61.18
2023-03-25T08:26:14.202Z,60.57
2023-03-25T08:27:20.021Z,60.45
2023-03-25T08:28:23.800Z,61.03
2023-03-25T08:29:34.779Z,61.34
2023-03-25T08:30:39.310Z,61.76
2023-03-25T08:31:42.017Z,61.66
2023-03-25T08:32:54.994Z,60.48
2023-03-25T08:33:58.284Z,60.35
2023-03-25T08:35:00.371Z,60.43
2023-03-25T08:36:03.637Z,59.80
2023-03-25T08:37:08.681Z,59.85
2023-03-25T08:38:12.583Z,57.71
2023-03-25T08:39:17.416Z,57.30
2023-03-25T08:40:33.190Z,58.04
2023-03-25T08:41:41.748Z,54.96
2023-03-25T08:42:46.256Z,58.15
2023-03-25T08:43:54.468Z,58.11
2023-03-25T08:44:58.011Z,58.16
2023-03-25T08:46:01.105Z,58.06
2023-03-25T08:47:05.026Z,56.07
2023-03-25T08:48:10.507Z,57.51
2023-03-25T08:49:13.492Z,56.36
2023-03-25T08:50:16.608Z,55.88
2023-03-25T08:51:23.215Z,56.27
2023-03-25T08:52:27.112Z,56.52
2023-03-25T08:53:30.122Z,55.97
2023-03-25T08:54:32.099Z,55.95
2023-03-25T08:55:35.678Z,56.45
2023-03-25T08:56:38.575Z,56.95
2023-03-25T08:57:52.113Z,56.10
2023-03-25T08:58:55.314Z,55.98
2023-03-25T08:59:59.486Z,56.41
2023-03-25T09:01:02.640Z,55.83
2023-03-25T09:02:07.367Z,55.83
2023-03-25T09:03:13.352Z,56.42
2023-03-25T09:04:16.729Z,54.91
2023-03-25T09:05:21.133Z,55.02
2023-03-25T09:06:30.510Z,54.91
2023-03-25T09:07:52.568Z,55.50
2023-03-25T09:08:56.252Z,54.93
2023-03-25T09:09:59.221Z,54.79
2023-03-25T09:11:03.845Z,55.30
2023-03-25T09:12:07.995Z,55.34
2023-03-25T09:13:14.434Z,55.62
2023-03-25T09:14:17.961Z,55.21
2023-03-25T09:15:33.680Z,54.77
2023-03-25T09:16:36.318Z,54.87
2023-03-25T09:17:43.118Z,55.25
2023-03-25T09:18:46.120Z,54.94
2023-03-25T09:19:57.039Z,55.92
2023-03-25T09:21:03.076Z,56.37
2023-03-25T09:22:31.917Z,55.48
2023-03-25T09:23:40.075Z,55.99
2023-03-25T09:24:42.552Z,56.03
2023-03-25T09:25:46.760Z,56.26
2023-03-25T09:27:01.371Z,56.16
2023-03-25T09:28:10.101Z,56.36
2023-03-25T09:29:13.822Z,55.61
2023-03-25T09:30:16.660Z,55.97
2023-03-25T09:31:26.417Z,55.58
2023-03-25T09:32:28.744Z,55.42
2023-03-25T09:33:32.913Z,54.36
2023-03-25T09:34:35.901Z,54.81
2023-03-25T09:35:42.449Z,54.05
2023-03-25T09:36:46.098Z,55.44
2023-03-25T09:37:52.042Z,54.74
2023-03-25T09:38:57.121Z,54.53
2023-03-25T09:39:59.936Z,54.18
2023-03-25T09:41:05.867Z,52.18
2023-03-25T09:42:16.939Z,52.62
2023-03-25T09:43:40.451Z,51.05
2023-03-25T09:44:52.897Z,52.46
2023-03-25T09:45:57.041Z,53.24
2023-03-25T09:47:01.067Z,52.93
2023-03-25T09:48:07.533Z,52.84
2023-03-25T09:49:16.823Z,52.02
2023-03-25T09:50:20.599Z,51.73
2023-03-25T09:51:26.950Z,51.96
2023-03-25T09:52:34.941Z,52.77
2023-03-25T09:53:45.931Z,53.61
2023-03-25T09:54:53.369Z,52.96
2023-03-25T09:56:01.472Z,53.18
2023-03-25T09:57:08.495Z,51.75
2023-03-25T09:58:29.928Z,51.60
2023-03-25T09:59:39.401Z,52.01
2023-03-25T10:00:42.172Z,52.56
2023-03-25T10:01:49.254Z,52.63
2023-03-25T10:02:57.410Z,52.93
2023-03-25T10:04:29.111Z,53.01
2023-03-25T10:05:52.910Z,52.18
2023-03-25T10:07:20.116Z,52.93
2023-03-25T10:08:33.943Z,51.58
2023-03-25T10:09:59.289Z,50.83
2023-03-25T10:11:07.610Z,51.65
2023-03-25T10:12:27.041Z,48.82
2023-03-25T10:13:57.954Z,51.36
2023-03-25T10:15:14.468Z,51.68
2023-03-25T10:16:23.096Z,51.07
2023-03-25T10:17:32.071Z,51.17
2023-03-25T10:18:46.616Z,49.87
2023-03-25T10:19:59.496Z,49.92
2023-03-25T10:21:04.406Z,51.22
2023-03-25T10:22:10.755Z,51.63
2023-03-25T10:23:20.519Z,51.86
2023-03-25T10:24:30.050Z,51.27
2023-03-25T10:25:38.349Z,51.57
2023-03-25T10:26:44.381Z,52.34
2023-03-25T10:27:48.836Z,52.64
2023-03-25T10:28:55.491Z,53.59
2023-03-25T10:30:01.293Z,53.74
2023-03-25T10:31:06.887Z,54.03
2023-03-25T10:32:17.158Z,54.63
2023-03-25T10:33:28.042Z,54.72
2023-03-25T10:34:36.459Z,54.69
2023-03-25T10:36:07.066Z,55.66
2023-03-25T10:37:13.077Z,56.62
2023-03-25T10:38:18.807Z,57.05
2023-03-25T10:39:23.581Z,58.07
2023-03-25T10:40:31.120Z,58.93
2023-03-25T10:41:37.429Z,60.35
2023-03-25T10:42:45.300Z,60.73
2023-03-25T10:43:57.125Z,62.46
2023-03-25T10:45:01.278Z,63.58
2023-03-25T10:46:14.416Z,63.51
2023-03-25T10:47:19.197Z,63.18
2023-03-25T10:48:25.303Z,63.06
2023-03-25T10:49:29.914Z,62.88
2023-03-25T10:50:33.133Z,62.45
2023-03-25T10:51:36.245Z,63.21
2023-03-25T10:52:39.006Z,62.87
2023-03-25T10:53:41.916Z,62.99
2023-03-25T10:54:46.689Z,64.36
2023-03-25T10:55:53.614Z,64.52
2023-03-25T10:56:59.939Z,65.66
2023-03-25T10:58:02.954Z,65.87
2023-03-25T10:59:12.373Z,68.00
2023-03-25T11:00:16.853Z,67.93
2023-03-25T11:01:21.464Z,69.78
2023-03-25T11:02:25.642Z,70.85
2023-03-25T11:03:32.125Z,72.75
2023-03-25T11:04:37.872Z,72.84
2023-03-25T11:05:41.304Z,73.15
2023-03-25T11:06:46.068Z,73.72
2023-03-25T11:07:51.719Z,74.10
2023-03-25T11:09:12.233Z,74.79
2023-03-25T11:10:21.324Z,76.83
2023-03-25T11:11:32.152Z,78.08
2023-03-25T11:12:42.963Z,78.67
2023-03-25T11:13:46.390Z,79.16
2023-03-25T11:14:57.943Z,80.41
2023-03-25T11:16:02.544Z,81.67
2023-03-25T11:17:09.606Z,81.72
2023-03-25T11:18:14.894Z,81.69
2023-03-25T11:19:22.630Z,80.83
2023-03-25T11:20:28.881Z,79.89
2023-03-25T11:21:34.057Z,79.82
2023-03-25T11:22:37.643Z,78.12
2023-03-25T11:23:45.084Z,77.42
2023-03-25T11:24:49.714Z,76.62
2023-03-25T11:25:54.211Z,75.63
2023-03-25T11:26:57.411Z,74.16
2023-03-25T11:28:03.196Z,72.18
2023-03-25T11:29:08.469Z,71.58
2023-03-25T11:30:16.366Z,70.23
2023-03-25T11:31:20.988Z,69.35
2023-03-25T11:32:25.214Z,67.75
2023-03-25T11:33:28.297Z,66.93
2023-03-25T11:34:31.246Z,66.06
2023-03-25T11:35:38.337Z,65.09
2023-03-25T11:36:41.123Z,63.59
2023-03-25T11:37:46.765Z,62.95
2023-03-25T11:38:53.596Z,62.29
2023-03-25T11:39:57.115Z,61.79
2023-03-25T11:40:59.941Z,62.02
2023-03-25T11:42:25.325Z,61.82
2023-03-25T11:43:34.304Z,62.21
2023-03-25T11:44:36.661Z,62.00
2023-03-25T11:45:40.265Z,60.70
2023-03-25T11:46:43.348Z,60.53
2023-03-25T11:47:46.414Z,60.81
2023-03-25T11:48:50.103Z,59.75
2023-03-25T11:49:54.162Z,59.08
2023-03-25T11:50:58.125Z,59.06
2023-03-25T11:52:02.370Z,58.06
2023-03-25T11:53:11.228Z,58.58
2023-03-25T11:54:18.117Z,57.37
2023-03-25T11:55:24.046Z,58.06
2023-03-25T11:56:30.420Z,58.65
2023-03-25T11:57:37.609Z,58.30
2023-03-25T11:58:42.079Z,57.68
2023-03-25T11:59:45.555Z,56.93
2023-03-25T12:00:49.998Z,56.39
2023-03-25T12:02:03.231Z,55.77
2023-03-25T12:03:08.173Z,56.58
2023-03-25T12:04:16.190Z,57.03
2023-03-25T12:05:20.232Z,57.09
2023-03-25T12:06:22.710Z,57.23
2023-03-25T12:07:26.340Z,57.37
2023-03-25T12:08:42.760Z,58.01
2023-03-25T12:09:55.609Z,59.13
2023-03-25T12:11:09.117Z,61.49
2023-03-25T12:12:26.986Z,62.18
2023-03-25T12:13:40.954Z,63.94
2023-03-25T12:15:07.129Z,68.13
2023-03-25T12:16:21.645Z,70.00
2023-03-25T12:17:32.774Z,71.49
2023-03-25T12:18:48.280Z,74.61
2023-03-25T12:19:57.522Z,81.50
2023-03-25T12:21:07.585Z,84.34
2023-03-25T12:22:19.412Z,86.97
2023-03-25T12:23:29.857Z,89.25
2023-03-25T12:24:42.093Z,91.34
2023-03-25T12:25:54.668Z,93.41
2023-03-25T12:27:14.307Z,94.17
2023-03-25T12:28:32.371Z,94.25
2023-03-25T12:29:41.838Z,95.45
2023-03-25T12:30:54.435Z,95.38
2023-03-25T12:32:09.047Z,95.94
2023-03-25T12:33:23.095Z,96.04
2023-03-25T12:34:32.948Z,96.82
2023-03-25T12:35:40.579Z,96.31
2023-03-25T12:36:49.541Z,96.01
2023-03-25T12:38:18.123Z,96.34
2023-03-25T12:39:45.936Z,96.31
2023-03-25T12:41:12.368Z,97.44
2023-03-25T12:42:26.020Z,97.75
2023-03-25T12:43:33.498Z,98.06
2023-03-25T12:44:52.841Z,99.17
2023-03-25T12:46:09.417Z,99.58
2023-03-25T12:47:17.053Z,100.00
2023-03-25T12:48:29.577Z,100.00
2023-03-25T12:49:43.434Z,100.00
2023-03-25T12:50:52.688Z,99.60
2023-03-25T12:51:59.803Z,99.61
2023-03-25T12:53:13.484Z,99.97
2023-03-25T12:54:29.922Z,100.00
2023-03-25T12:55:45.529Z,100.00
2023-03-25T12:56:53.931Z,100.00
2023-03-25T12:58:09.801Z,100.00
2023-03-25T12:59:38.423Z,100.00
2023-03-25T13:00:48.144Z,100.00
2023-03-25T13:02:02.320Z,100.00
2023-03-25T13:03:36.027Z,99.99
2023-03-25T13:04:49.241Z,100.00
2023-03-25T13:06:36.264Z,100.00
2023-03-25T13:07:44.664Z,100.00
2023-03-25T13:08:52.241Z,100.00
2023-03-25T13:09:59.438Z,100.00
2023-03-25T13:11:06.571Z,100.00
2023-03-25T13:12:13.242Z,100.00
2023-03-25T13:13:19.772Z,100.00
2023-03-25T13:14:27.270Z,100.00
2023-03-25T13:15:33.204Z,100.00
2023-03-25T13:16:42.031Z,100.00
2023-03-25T13:17:48.708Z,100.00
2023-03-25T13:18:56.804Z,100.00
2023-03-25T13:20:01.209Z,100.00
2023-03-25T13:21:13.374Z,100.00
2023-03-25T13:22:20.263Z,100.00
2023-03-25T13:23:23.754Z,100.00
2023-03-25T13:24:31.897Z,100.00
2023-03-25T13:25:37.479Z,100.00
2023-03-25T13:26:44.564Z,100.00
2023-03-25T13:27:48.287Z,100.00
2023-03-25T13:28:56.075Z,100.00
2023-03-25T13:30:24.383Z,100.00
2023-03-25T13:31:28.978Z,100.00
2023-03-25T13:32:34.754Z,100.00
2023-03-25T13:33:44.314Z,100.00
2023-03-25T13:34:50.197Z,100.00
2023-03-25T13:36:22.137Z,100.00
2023-03-25T13:37:29.264Z,96.66
2023-03-25T13:38:58.062Z,92.41
2023-03-25T13:40:17.993Z,92.04
2023-03-25T13:41:25.963Z,93.42
2023-03-25T13:42:35.093Z,94.91
2023-03-25T13:43:44.916Z,95.74
2023-03-25T13:44:47.848Z,96.59
2023-03-25T13:46:12.114Z,98.47
2023-03-25T13:47:19.597Z,98.18
2023-03-25T13:48:32.044Z,98.02
2023-03-25T13:49:48.456Z,97.87
2023-03-25T13:50:53.832Z,97.93
2023-03-25T13:51:57.396Z,97.69
2023-03-25T13:53:04.963Z,96.45
2023-03-25T13:54:14.038Z,94.53
2023-03-25T13:55:18.292Z,94.19
2023-03-25T13:57:00.496Z,94.23
2023-03-25T13:58:31.049Z,94.50
2023-03-25T14:00:24.918Z,92.87
2023-03-25T14:01:39.804Z,89.92
2023-03-25T14:03:04.051Z,89.87
2023-03-25T14:04:26.058Z,89.43
2023-03-25T14:05:48.374Z,89.50
2023-03-25T14:07:29.498Z,89.81
2023-03-25T14:08:58.839Z,89.89
2023-03-25T14:10:29.374Z,89.96
2023-03-25T14:11:35.241Z,90.51
2023-03-25T14:12:39.012Z,91.43
2023-03-25T14:13:45.572Z,93.34
2023-03-25T14:14:52.096Z,93.70
2023-03-25T14:15:59.112Z,94.15
2023-03-25T14:17:02.177Z,94.94
2023-03-25T14:18:04.806Z,95.78
2023-03-25T14:19:11.559Z,95.70
2023-03-25T14:20:19.435Z,95.94
2023-03-25T14:21:33.025Z,95.87
2023-03-25T14:22:41.369Z,96.21
2023-03-25T14:23:45.214Z,95.99
2023-03-25T14:24:48.644Z,95.92
2023-03-25T14:25:53.633Z,97.00
2023-03-25T14:27:01.891Z,97.41
2023-03-25T14:28:05.826Z,98.10
2023-03-25T14:29:09.871Z,98.18
2023-03-25T14:30:20.347Z,98.59
2023-03-25T14:31:30.528Z,99.53
2023-03-25T14:32:36.464Z,100.00
2023-03-25T14:34:25.348Z,100.00
2023-03-25T14:56:26.776Z,100.00
2023-03-25T14:57:35.009Z,100.00
2023-03-25T14:58:39.819Z,100.00
2023-03-25T14:59:45.678Z,100.00
2023-03-25T15:00:52.105Z,100.00
2023-03-25T15:01:55.561Z,100.00
2023-03-25T15:03:03.018Z,100.00
2023-03-25T15:04:13.164Z,100.00
2023-03-25T15:05:19.392Z,100.00
2023-03-25T15:06:29.555Z,100.00
2023-03-25T15:07:44.231Z,100.00
2023-03-25T15:08:53.180Z,100.00
2023-03-25T15:09:56.890Z,100.00
2023-03-25T15:11:05.796Z,99.55
2023-03-25T15:12:15.563Z,99.60
2023-03-25T15:13:22.019Z,99.00
2023-03-25T15:14:28.174Z,99.08
2023-03-25T15:15:33.195Z,98.21
2023-03-25T15:16:38.371Z,98.11
2023-03-25T15:17:44.374Z,97.23
2023-03-25T15:19:02.400Z,95.89
2023-03-25T15:20:36.794Z,93.89
2023-03-25T15:22:10.958Z,91.57
2023-03-25T15:23:32.731Z,90.35
2023-03-25T15:24:37.141Z,89.45
2023-03-25T15:25:40.334Z,89.33
2023-03-25T15:26:43.530Z,89.60
2023-03-25T15:28:00.191Z,89.46
2023-03-25T15:29:14.244Z,88.42